sensor_id;sensor_type;location;lat;lon;timestamp;temperature;humidity
40255;DHT22;25973;52.368;4.940;2023-04-16T00:00:58;9.60;99.90
40255;DHT22;25973;52.368;4.940;2023-04-16T00:03:24;9.50;99.90
40255;DHT22;25973;52.368;4.940;2023-04-16T00:05:50;9.60;99.90
40255;DHT22;25973;52.368;4.940;2023-04-16T00:08:15;9.60;99.90
40255;DHT22;25973;52.368;4.940;2023-04-16T00:10:41;9.60;99.90
40255;DHT22;25973;52.368;4.940;2023-04-16T00:13:06;9.60;99.90
40255;DHT22;25973;52.368;4.940;2023-04-16T00:15:32;9.60;99.90
40255;DHT22;25973;52.368;4.940;2023-04-16T00:17:57;9.60;99.90
40255;DHT22;25973;52.368;4.940;2023-04-16T00:20:23;9.70;99.90
40255;DHT22;25973;52.368;4.940;2023-04-16T00:22:48;9.70;99.90
40255;DHT22;25973;52.368;4.940;2023-04-16T00:25:13;9.60;99.90
40255;DHT22;25973;52.368;4.940;2023-04-16T00:27:39;9.70;99.90
40255;DHT22;25973;52.368;4.940;2023-04-16T00:30:05;9.70;99.90
40255;DHT22;25973;52.368;4.940;2023-04-16T00:32:31;9.60;99.90
40255;DHT22;25973;52.368;4.940;2023-04-16T00:34:56;9.70;99.90
40255;DHT22;25973;52.368;4.940;2023-04-16T00:37:21;9.60;99.90
40255;DHT22;25973;52.368;4.940;2023-04-16T00:39:47;9.60;99.90
40255;DHT22;25973;52.368;4.940;2023-04-16T00:42:12;9.60;99.90
40255;DHT22;25973;52.368;4.940;2023-04-16T00:44:38;9.60;99.90
40255;DHT22;25973;52.368;4.940;2023-04-16T00:47:03;9.60;99.90
40255;DHT22;25973;52.368;4.940;2023-04-16T00:49:31;9.60;99.90
40255;DHT22;25973;52.368;4.940;2023-04-16T00:51:57;9.70;99.90
40255;DHT22;25973;52.368;4.940;2023-04-16T00:54:23;9.70;99.90
40255;DHT22;25973;52.368;4.940;2023-04-16T00:56:48;9.70;99.90
40255;DHT22;25973;52.368;4.940;2023-04-16T00:59:15;9.60;99.90
40255;DHT22;25973;52.368;4.940;2023-04-16T01:01:40;9.60;99.90
40255;DHT22;25973;52.368;4.940;2023-04-16T01:04:06;9.70;99.90
40255;DHT22;25973;52.368;4.940;2023-04-16T01:06:31;9.60;99.90
40255;DHT22;25973;52.368;4.940;2023-04-16T01:08:57;9.60;99.90
40255;DHT22;25973;52.368;4.940;2023-04-16T01:11:22;9.60;99.90
40255;DHT22;25973;52.368;4.940;2023-04-16T01:13:48;9.60;99.90
40255;DHT22;25973;52.368;4.940;2023-04-16T01:16:13;9.60;99.90
40255;DHT22;25973;52.368;4.940;2023-04-16T01:18:39;9.60;99.90
40255;DHT22;25973;52.368;4.940;2023-04-16T01:21:04;9.60;99.90
40255;DHT22;25973;52.368;4.940;2023-04-16T01:23:30;9.60;99.90
40255;DHT22;25973;52.368;4.940;2023-04-16T01:25:56;9.60;99.90
40255;DHT22;25973;52.368;4.940;2023-04-16T01:28:21;9.60;99.90
40255;DHT22;25973;52.368;4.940;2023-04-16T01:30:47;9.60;99.90
40255;DHT22;25973;52.368;4.940;2023-04-16T01:33:13;9.60;99.90
40255;DHT22;25973;52.368;4.940;2023-04-16T01:35:39;9.60;99.90
40255;DHT22;25973;52.368;4.940;2023-04-16T01:38:05;9.60;99.90
40255;DHT22;25973;52.368;4.940;2023-04-16T01:40:32;9.70;99.90
40255;DHT22;25973;52.368;4.940;2023-04-16T01:42:58;9.70;99.90
40255;DHT22;25973;52.368;4.940;2023-04-16T01:45:23;9.70;99.90
40255;DHT22;25973;52.368;4.940;2023-04-16T01:47:49;9.60;99.90
40255;DHT22;25973;52.368;4.940;2023-04-16T01:50:15;9.70;99.90
40255;DHT22;25973;52.368;4.940;2023-04-16T01:52:41;9.70;99.90
40255;DHT22;25973;52.368;4.940;2023-04-16T01:55:07;9.70;99.90
40255;DHT22;25973;52.368;4.940;2023-04-16T01:57:33;9.70;99.90
40255;DHT22;25973;52.368;4.940;2023-04-16T01:59:58;9.70;99.90
40255;DHT22;25973;52.368;4.940;2023-04-16T02:02:24;9.70;99.90
40255;DHT22;25973;52.368;4.940;2023-04-16T02:04:52;9.80;99.90
40255;DHT22;25973;52.368;4.940;2023-04-16T02:07:17;9.80;99.90
40255;DHT22;25973;52.368;4.940;2023-04-16T02:09:43;9.80;99.90
40255;DHT22;25973;52.368;4.940;2023-04-16T02:12:08;9.80;99.90
40255;DHT22;25973;52.368;4.940;2023-04-16T02:14:36;9.80;99.90
40255;DHT22;25973;52.368;4.940;2023-04-16T02:17:01;9.80;99.90
40255;DHT22;25973;52.368;4.940;2023-04-16T02:19:26;9.80;99.90
40255;DHT22;25973;52.368;4.940;2023-04-16T02:21:52;9.80;99.90
40255;DHT22;25973;52.368;4.940;2023-04-16T02:24:18;9.80;99.90
40255;DHT22;25973;52.368;4.940;2023-04-16T02:26:43;9.70;99.90
40255;DHT22;25973;52.368;4.940;2023-04-16T02:29:09;9.70;99.90
40255;DHT22;25973;52.368;4.940;2023-04-16T02:31:35;9.70;99.90
40255;DHT22;25973;52.368;4.940;2023-04-16T02:34:01;9.70;99.90
40255;DHT22;25973;52.368;4.940;2023-04-16T02:36:26;9.70;99.90
40255;DHT22;25973;52.368;4.940;2023-04-16T02:38:52;9.60;99.90
40255;DHT22;25973;52.368;4.940;2023-04-16T02:41:17;9.70;99.90
40255;DHT22;25973;52.368;4.940;2023-04-16T02:43:42;9.60;99.90
40255;DHT22;25973;52.368;4.940;2023-04-16T02:46:08;9.60;99.90
40255;DHT22;25973;52.368;4.940;2023-04-16T02:48:34;9.60;99.90
40255;DHT22;25973;52.368;4.940;2023-04-16T02:50:59;9.60;99.90
40255;DHT22;25973;52.368;4.940;2023-04-16T02:53:25;9.60;99.90
40255;DHT22;25973;52.368;4.940;2023-04-16T02:55:51;9.60;99.90
40255;DHT22;25973;52.368;4.940;2023-04-16T02:58:17;9.70;99.90
40255;DHT22;25973;52.368;4.940;2023-04-16T03:00:43;9.70;99.90
40255;DHT22;25973;52.368;4.940;2023-04-16T03:03:08;9.70;99.90
40255;DHT22;25973;52.368;4.940;2023-04-16T03:05:34;9.70;99.90
40255;DHT22;25973;52.368;4.940;2023-04-16T03:07:59;9.60;99.90
40255;DHT22;25973;52.368;4.940;2023-04-16T03:10:25;9.70;99.90
40255;DHT22;25973;52.368;4.940;2023-04-16T03:12:50;9.70;99.90
40255;DHT22;25973;52.368;4.940;2023-04-16T03:15:16;9.70;99.90
40255;DHT22;25973;52.368;4.940;2023-04-16T03:17:41;9.70;99.90
40255;DHT22;25973;52.368;4.940;2023-04-16T03:20:07;9.70;99.90
40255;DHT22;25973;52.368;4.940;2023-04-16T03:22:33;9.70;99.90
40255;DHT22;25973;52.368;4.940;2023-04-16T03:24:58;9.70;99.90
40255;DHT22;25973;52.368;4.940;2023-04-16T03:27:24;9.70;99.90
40255;DHT22;25973;52.368;4.940;2023-04-16T03:29:49;9.70;99.90
40255;DHT22;25973;52.368;4.940;2023-04-16T03:32:15;9.70;99.90
40255;DHT22;25973;52.368;4.940;2023-04-16T03:34:41;9.70;99.90
40255;DHT22;25973;52.368;4.940;2023-04-16T03:37:06;9.70;99.90
40255;DHT22;25973;52.368;4.940;2023-04-16T03:39:36;9.70;99.90
40255;DHT22;25973;52.368;4.940;2023-04-16T03:42:01;9.70;99.90
40255;DHT22;25973;52.368;4.940;2023-04-16T03:44:28;9.60;99.90
40255;DHT22;25973;52.368;4.940;2023-04-16T03:46:53;9.70;99.90
40255;DHT22;25973;52.368;4.940;2023-04-16T03:49:19;9.70;99.90
40255;DHT22;25973;52.368;4.940;2023-04-16T03:51:44;9.70;99.90
40255;DHT22;25973;52.368;4.940;2023-04-16T03:54:10;9.70;99.90
40255;DHT22;25973;52.368;4.940;2023-04-16T03:56:35;9.60;99.90
40255;DHT22;25973;52.368;4.940;2023-04-16T03:59:01;9.60;99.90
40255;DHT22;25973;52.368;4.940;2023-04-16T04:01:26;9.60;99.90
40255;DHT22;25973;52.368;4.940;2023-04-16T04:03:52;9.60;99.90
40255;DHT22;25973;52.368;4.940;2023-04-16T04:06:17;9.60;99.90
40255;DHT22;25973;52.368;4.940;2023-04-16T04:08:43;9.60;99.90
40255;DHT22;25973;52.368;4.940;2023-04-16T04:11:08;9.60;99.90
40255;DHT22;25973;52.368;4.940;2023-04-16T04:13:34;9.60;99.90
40255;DHT22;25973;52.368;4.940;2023-04-16T04:15:59;9.60;99.90
40255;DHT22;25973;52.368;4.940;2023-04-16T04:18:25;9.60;99.90
40255;DHT22;25973;52.368;4.940;2023-04-16T04:20:50;9.60;99.90
40255;DHT22;25973;52.368;4.940;2023-04-16T04:23:16;9.60;99.90
40255;DHT22;25973;52.368;4.940;2023-04-16T04:25:41;9.70;99.90
40255;DHT22;25973;52.368;4.940;2023-04-16T04:28:07;9.60;99.90
40255;DHT22;25973;52.368;4.940;2023-04-16T04:30:32;9.70;99.90
40255;DHT22;25973;52.368;4.940;2023-04-16T04:32:59;9.70;99.90
40255;DHT22;25973;52.368;4.940;2023-04-16T04:35:25;9.70;99.90
40255;DHT22;25973;52.368;4.940;2023-04-16T04:37:50;9.60;99.90
40255;DHT22;25973;52.368;4.940;2023-04-16T04:40:16;9.70;99.90
40255;DHT22;25973;52.368;4.940;2023-04-16T04:42:41;9.70;99.90
40255;DHT22;25973;52.368;4.940;2023-04-16T04:45:07;9.70;99.90
40255;DHT22;25973;52.368;4.940;2023-04-16T04:47:36;9.70;99.90
40255;DHT22;25973;52.368;4.940;2023-04-16T04:50:01;9.80;99.90
40255;DHT22;25973;52.368;4.940;2023-04-16T04:52:27;9.60;99.90
40255;DHT22;25973;52.368;4.940;2023-04-16T04:54:52;9.60;99.90
40255;DHT22;25973;52.368;4.940;2023-04-16T04:57:18;9.60;99.90
40255;DHT22;25973;52.368;4.940;2023-04-16T04:59:43;9.60;99.90
40255;DHT22;25973;52.368;4.940;2023-04-16T05:02:09;9.60;99.90
40255;DHT22;25973;52.368;4.940;2023-04-16T05:04:34;9.60;99.90
40255;DHT22;25973;52.368;4.940;2023-04-16T05:06:59;9.60;99.90
40255;DHT22;25973;52.368;4.940;2023-04-16T05:09:26;9.60;99.90
40255;DHT22;25973;52.368;4.940;2023-04-16T05:11:52;9.70;99.90
40255;DHT22;25973;52.368;4.940;2023-04-16T05:14:17;9.70;99.90
40255;DHT22;25973;52.368;4.940;2023-04-16T05:16:42;9.70;99.90
40255;DHT22;25973;52.368;4.940;2023-04-16T05:19:08;9.70;99.90
40255;DHT22;25973;52.368;4.940;2023-04-16T05:21:33;9.70;99.90
40255;DHT22;25973;52.368;4.940;2023-04-16T05:23:59;9.70;99.90
40255;DHT22;25973;52.368;4.940;2023-04-16T05:26:24;9.60;99.90
40255;DHT22;25973;52.368;4.940;2023-04-16T05:28:50;9.60;99.90
40255;DHT22;25973;52.368;4.940;2023-04-16T05:31:15;9.60;99.90
40255;DHT22;25973;52.368;4.940;2023-04-16T05:33:40;9.60;99.90
40255;DHT22;25973;52.368;4.940;2023-04-16T05:36:06;9.60;99.90
40255;DHT22;25973;52.368;4.940;2023-04-16T05:38:31;9.60;99.90
40255;DHT22;25973;52.368;4.940;2023-04-16T05:40:57;9.60;99.90
40255;DHT22;25973;52.368;4.940;2023-04-16T05:43:23;9.60;99.90
40255;DHT22;25973;52.368;4.940;2023-04-16T05:45:48;9.60;99.90
40255;DHT22;25973;52.368;4.940;2023-04-16T05:48:13;9.60;99.90
40255;DHT22;25973;52.368;4.940;2023-04-16T05:50:39;9.60;99.90
40255;DHT22;25973;52.368;4.940;2023-04-16T05:53:05;9.50;99.90
40255;DHT22;25973;52.368;4.940;2023-04-16T05:55:31;9.60;99.90
40255;DHT22;25973;52.368;4.940;2023-04-16T05:57:57;9.60;99.90
40255;DHT22;25973;52.368;4.940;2023-04-16T06:00:22;9.60;99.90
40255;DHT22;25973;52.368;4.940;2023-04-16T06:02:48;9.60;99.90
40255;DHT22;25973;52.368;4.940;2023-04-16T06:05:13;9.70;99.90
40255;DHT22;25973;52.368;4.940;2023-04-16T06:07:39;9.60;99.90
40255;DHT22;25973;52.368;4.940;2023-04-16T06:10:04;9.70;99.90
40255;DHT22;25973;52.368;4.940;2023-04-16T06:12:30;9.70;99.90
40255;DHT22;25973;52.368;4.940;2023-04-16T06:14:55;9.70;99.90
40255;DHT22;25973;52.368;4.940;2023-04-16T06:17:21;9.70;99.90
40255;DHT22;25973;52.368;4.940;2023-04-16T06:19:46;9.70;99.90
40255;DHT22;25973;52.368;4.940;2023-04-16T06:22:12;9.70;99.90
40255;DHT22;25973;52.368;4.940;2023-04-16T06:24:37;9.70;99.90
40255;DHT22;25973;52.368;4.940;2023-04-16T06:27:03;9.80;99.90
40255;DHT22;25973;52.368;4.940;2023-04-16T06:29:28;9.80;99.90
40255;DHT22;25973;52.368;4.940;2023-04-16T06:31:54;9.80;99.90
40255;DHT22;25973;52.368;4.940;2023-04-16T06:34:19;9.70;99.90
40255;DHT22;25973;52.368;4.940;2023-04-16T06:36:45;9.70;99.90
40255;DHT22;25973;52.368;4.940;2023-04-16T06:39:10;9.70;99.90
40255;DHT22;25973;52.368;4.940;2023-04-16T06:41:36;9.70;99.90
40255;DHT22;25973;52.368;4.940;2023-04-16T06:44:01;9.70;99.90
40255;DHT22;25973;52.368;4.940;2023-04-16T06:46:27;9.70;99.90
40255;DHT22;25973;52.368;4.940;2023-04-16T06:48:52;9.70;99.90
40255;DHT22;25973;52.368;4.940;2023-04-16T06:51:18;9.80;99.90
40255;DHT22;25973;52.368;4.940;2023-04-16T06:53:43;9.80;99.90
40255;DHT22;25973;52.368;4.940;2023-04-16T06:56:09;9.80;99.90
40255;DHT22;25973;52.368;4.940;2023-04-16T06:58:35;9.80;99.90
40255;DHT22;25973;52.368;4.940;2023-04-16T07:01:00;9.80;99.90
40255;DHT22;25973;52.368;4.940;2023-04-16T07:03:26;9.80;99.90
40255;DHT22;25973;52.368;4.940;2023-04-16T07:05:52;9.80;99.90
40255;DHT22;25973;52.368;4.940;2023-04-16T07:08:17;9.70;99.90
40255;DHT22;25973;52.368;4.940;2023-04-16T07:10:43;9.80;99.90
40255;DHT22;25973;52.368;4.940;2023-04-16T07:13:08;9.70;99.90
40255;DHT22;25973;52.368;4.940;2023-04-16T07:15:34;9.70;99.90
40255;DHT22;25973;52.368;4.940;2023-04-16T07:18:00;9.80;99.90
40255;DHT22;25973;52.368;4.940;2023-04-16T07:20:25;9.80;99.90
40255;DHT22;25973;52.368;4.940;2023-04-16T07:22:50;9.80;99.90
40255;DHT22;25973;52.368;4.940;2023-04-16T07:25:16;9.90;99.90
40255;DHT22;25973;52.368;4.940;2023-04-16T07:27:41;9.80;99.90
40255;DHT22;25973;52.368;4.940;2023-04-16T07:30:07;9.80;99.90
40255;DHT22;25973;52.368;4.940;2023-04-16T07:32:33;9.80;99.90
40255;DHT22;25973;52.368;4.940;2023-04-16T07:34:59;9.80;99.90
40255;DHT22;25973;52.368;4.940;2023-04-16T07:37:24;9.90;99.90
40255;DHT22;25973;52.368;4.940;2023-04-16T07:39:50;9.90;99.90
40255;DHT22;25973;52.368;4.940;2023-04-16T07:42:16;9.90;99.90
40255;DHT22;25973;52.368;4.940;2023-04-16T07:44:42;9.90;99.90
40255;DHT22;25973;52.368;4.940;2023-04-16T07:47:08;9.90;99.90
40255;DHT22;25973;52.368;4.940;2023-04-16T07:49:33;9.90;99.90
40255;DHT22;25973;52.368;4.940;2023-04-16T07:51:59;9.90;99.90
40255;DHT22;25973;52.368;4.940;2023-04-16T07:54:24;9.90;99.90
40255;DHT22;25973;52.368;4.940;2023-04-16T07:56:50;9.90;99.90
40255;DHT22;25973;52.368;4.940;2023-04-16T07:59:15;9.90;99.90
40255;DHT22;25973;52.368;4.940;2023-04-16T08:01:40;9.90;99.90
40255;DHT22;25973;52.368;4.940;2023-04-16T08:04:06;9.90;99.90
40255;DHT22;25973;52.368;4.940;2023-04-16T08:06:31;9.90;99.90
40255;DHT22;25973;52.368;4.940;2023-04-16T08:08:57;9.90;99.90
40255;DHT22;25973;52.368;4.940;2023-04-16T08:11:22;10.00;99.90
40255;DHT22;25973;52.368;4.940;2023-04-16T08:13:48;10.00;99.90
40255;DHT22;25973;52.368;4.940;2023-04-16T08:16:14;10.00;99.90
40255;DHT22;25973;52.368;4.940;2023-04-16T08:18:39;10.00;99.90
40255;DHT22;25973;52.368;4.940;2023-04-16T08:21:05;10.10;99.90
40255;DHT22;25973;52.368;4.940;2023-04-16T08:23:30;10.10;99.90
40255;DHT22;25973;52.368;4.940;2023-04-16T08:25:56;10.10;99.90
40255;DHT22;25973;52.368;4.940;2023-04-16T08:28:21;10.10;99.90
40255;DHT22;25973;52.368;4.940;2023-04-16T08:30:46;10.10;99.90
40255;DHT22;25973;52.368;4.940;2023-04-16T08:33:12;10.10;99.90
40255;DHT22;25973;52.368;4.940;2023-04-16T08:35:38;10.20;99.90
40255;DHT22;25973;52.368;4.940;2023-04-16T08:38:04;10.20;99.90
40255;DHT22;25973;52.368;4.940;2023-04-16T08:40:31;10.20;99.90
40255;DHT22;25973;52.368;4.940;2023-04-16T08:42:58;10.20;99.90
40255;DHT22;25973;52.368;4.940;2023-04-16T08:45:25;10.20;99.90
40255;DHT22;25973;52.368;4.940;2023-04-16T08:47:50;10.30;99.90
40255;DHT22;25973;52.368;4.940;2023-04-16T08:50:18;10.40;99.90
40255;DHT22;25973;52.368;4.940;2023-04-16T08:52:49;10.40;99.90
40255;DHT22;25973;52.368;4.940;2023-04-16T08:55:15;10.40;99.90
40255;DHT22;25973;52.368;4.940;2023-04-16T08:57:43;10.40;99.90
40255;DHT22;25973;52.368;4.940;2023-04-16T09:00:11;10.50;99.90
40255;DHT22;25973;52.368;4.940;2023-04-16T09:02:37;10.50;99.90
40255;DHT22;25973;52.368;4.940;2023-04-16T09:05:04;10.50;99.90
40255;DHT22;25973;52.368;4.940;2023-04-16T09:07:30;10.50;99.90
40255;DHT22;25973;52.368;4.940;2023-04-16T09:09:56;10.50;99.90
40255;DHT22;25973;52.368;4.940;2023-04-16T09:12:23;10.60;99.90
40255;DHT22;25973;52.368;4.940;2023-04-16T09:14:49;10.50;99.90
40255;DHT22;25973;52.368;4.940;2023-04-16T09:17:15;10.60;99.90
40255;DHT22;25973;52.368;4.940;2023-04-16T09:19:41;10.60;99.90
40255;DHT22;25973;52.368;4.940;2023-04-16T09:22:06;10.60;99.90
40255;DHT22;25973;52.368;4.940;2023-04-16T09:24:32;10.60;99.90
40255;DHT22;25973;52.368;4.940;2023-04-16T09:26:58;10.60;99.90
40255;DHT22;25973;52.368;4.940;2023-04-16T09:29:34;10.60;99.90
40255;DHT22;25973;52.368;4.940;2023-04-16T09:32:01;10.60;99.90
40255;DHT22;25973;52.368;4.940;2023-04-16T09:34:27;10.60;99.90
40255;DHT22;25973;52.368;4.940;2023-04-16T09:36:52;10.60;99.90
40255;DHT22;25973;52.368;4.940;2023-04-16T09:39:18;10.60;99.90
40255;DHT22;25973;52.368;4.940;2023-04-16T09:41:44;10.70;99.90
40255;DHT22;25973;52.368;4.940;2023-04-16T09:44:11;10.70;99.90
40255;DHT22;25973;52.368;4.940;2023-04-16T09:46:40;10.70;99.90
40255;DHT22;25973;52.368;4.940;2023-04-16T09:49:15;10.80;99.90
40255;DHT22;25973;52.368;4.940;2023-04-16T09:51:41;10.80;99.90
40255;DHT22;25973;52.368;4.940;2023-04-16T09:54:07;10.80;99.90
40255;DHT22;25973;52.368;4.940;2023-04-16T09:56:38;10.80;99.90
40255;DHT22;25973;52.368;4.940;2023-04-16T09:59:03;10.80;99.90
40255;DHT22;25973;52.368;4.940;2023-04-16T10:01:29;10.80;99.90
40255;DHT22;25973;52.368;4.940;2023-04-16T10:03:55;10.70;99.90
40255;DHT22;25973;52.368;4.940;2023-04-16T10:06:23;10.70;99.90
40255;DHT22;25973;52.368;4.940;2023-04-16T10:08:52;10.70;99.90
40255;DHT22;25973;52.368;4.940;2023-04-16T10:11:18;10.70;99.90
40255;DHT22;25973;52.368;4.940;2023-04-16T10:13:44;10.70;99.90
40255;DHT22;25973;52.368;4.940;2023-04-16T10:16:10;10.70;99.90
40255;DHT22;25973;52.368;4.940;2023-04-16T10:18:36;10.70;99.90
40255;DHT22;25973;52.368;4.940;2023-04-16T10:21:02;10.70;99.90
40255;DHT22;25973;52.368;4.940;2023-04-16T10:23:28;10.70;99.90
40255;DHT22;25973;52.368;4.940;2023-04-16T10:25:53;10.70;99.90
40255;DHT22;25973;52.368;4.940;2023-04-16T10:28:19;10.70;99.90
40255;DHT22;25973;52.368;4.940;2023-04-16T10:30:46;10.60;99.90
40255;DHT22;25973;52.368;4.940;2023-04-16T10:33:35;10.70;99.90
40255;DHT22;25973;52.368;4.940;2023-04-16T10:36:13;10.70;99.90
40255;DHT22;25973;52.368;4.940;2023-04-16T10:38:59;10.80;99.90
40255;DHT22;25973;52.368;4.940;2023-04-16T10:41:24;10.70;99.90
40255;DHT22;25973;52.368;4.940;2023-04-16T10:43:50;10.80;99.90
40255;DHT22;25973;52.368;4.940;2023-04-16T10:46:17;10.80;99.90
40255;DHT22;25973;52.368;4.940;2023-04-16T10:48:43;10.80;99.90
40255;DHT22;25973;52.368;4.940;2023-04-16T10:51:08;10.90;99.90
40255;DHT22;25973;52.368;4.940;2023-04-16T10:53:47;10.90;99.90
40255;DHT22;25973;52.368;4.940;2023-04-16T10:56:12;11.00;99.90
40255;DHT22;25973;52.368;4.940;2023-04-16T10:58:37;11.00;99.90
40255;DHT22;25973;52.368;4.940;2023-04-16T11:01:09;11.10;99.90
40255;DHT22;25973;52.368;4.940;2023-04-16T11:03:39;11.10;99.90
40255;DHT22;25973;52.368;4.940;2023-04-16T11:06:09;11.20;99.90
40255;DHT22;25973;52.368;4.940;2023-04-16T11:08:35;11.20;99.90
40255;DHT22;25973;52.368;4.940;2023-04-16T11:11:00;11.20;99.90
40255;DHT22;25973;52.368;4.940;2023-04-16T11:13:28;11.20;99.90
40255;DHT22;25973;52.368;4.940;2023-04-16T11:15:56;11.30;99.90
40255;DHT22;25973;52.368;4.940;2023-04-16T11:18:22;11.30;99.90
40255;DHT22;25973;52.368;4.940;2023-04-16T11:20:47;11.40;99.90
40255;DHT22;25973;52.368;4.940;2023-04-16T11:23:13;11.50;99.90
40255;DHT22;25973;52.368;4.940;2023-04-16T11:25:38;11.50;99.90
40255;DHT22;25973;52.368;4.940;2023-04-16T11:28:04;11.50;99.90
40255;DHT22;25973;52.368;4.940;2023-04-16T11:30:30;11.60;99.90
40255;DHT22;25973;52.368;4.940;2023-04-16T11:32:56;11.60;99.90
40255;DHT22;25973;52.368;4.940;2023-04-16T11:35:21;11.60;99.90
40255;DHT22;25973;52.368;4.940;2023-04-16T11:37:47;11.70;99.90
40255;DHT22;25973;52.368;4.940;2023-04-16T11:40:13;11.60;99.90
40255;DHT22;25973;52.368;4.940;2023-04-16T11:42:39;11.60;99.90
40255;DHT22;25973;52.368;4.940;2023-04-16T11:45:05;11.60;99.90
40255;DHT22;25973;52.368;4.940;2023-04-16T11:47:31;11.70;99.90
40255;DHT22;25973;52.368;4.940;2023-04-16T11:49:57;11.70;99.90
40255;DHT22;25973;52.368;4.940;2023-04-16T11:52:26;11.70;99.90
40255;DHT22;25973;52.368;4.940;2023-04-16T11:54:52;11.70;99.90
40255;DHT22;25973;52.368;4.940;2023-04-16T11:57:30;11.70;99.90
40255;DHT22;25973;52.368;4.940;2023-04-16T11:59:59;11.70;99.90
40255;DHT22;25973;52.368;4.940;2023-04-16T12:02:37;11.70;99.90
40255;DHT22;25973;52.368;4.940;2023-04-16T12:05:03;11.70;99.90
40255;DHT22;25973;52.368;4.940;2023-04-16T12:07:29;11.80;99.90
40255;DHT22;25973;52.368;4.940;2023-04-16T12:10:04;11.80;99.90
40255;DHT22;25973;52.368;4.940;2023-04-16T12:12:31;11.90;99.90
40255;DHT22;25973;52.368;4.940;2023-04-16T12:14:56;11.90;99.90
40255;DHT22;25973;52.368;4.940;2023-04-16T12:17:23;11.90;99.90
40255;DHT22;25973;52.368;4.940;2023-04-16T12:19:58;12.00;99.90
40255;DHT22;25973;52.368;4.940;2023-04-16T12:22:27;12.10;99.90
40255;DHT22;25973;52.368;4.940;2023-04-16T12:25:00;12.10;99.90
40255;DHT22;25973;52.368;4.940;2023-04-16T12:30:09;12.30;99.90
40255;DHT22;25973;52.368;4.940;2023-04-16T12:32:35;12.30;99.90
40255;DHT22;25973;52.368;4.940;2023-04-16T12:35:01;12.40;99.90
40255;DHT22;25973;52.368;4.940;2023-04-16T12:37:26;12.50;99.90
40255;DHT22;25973;52.368;4.940;2023-04-16T12:39:52;12.60;99.90
40255;DHT22;25973;52.368;4.940;2023-04-16T12:42:17;12.70;99.90
40255;DHT22;25973;52.368;4.940;2023-04-16T12:44:43;12.80;99.90
40255;DHT22;25973;52.368;4.940;2023-04-16T12:47:08;12.80;99.90
40255;DHT22;25973;52.368;4.940;2023-04-16T12:49:34;12.90;99.90
40255;DHT22;25973;52.368;4.940;2023-04-16T12:52:00;13.00;99.90
40255;DHT22;25973;52.368;4.940;2023-04-16T12:54:26;12.90;99.90
40255;DHT22;25973;52.368;4.940;2023-04-16T12:56:53;12.90;99.90
40255;DHT22;25973;52.368;4.940;2023-04-16T12:59:19;12.90;99.90
40255;DHT22;25973;52.368;4.940;2023-04-16T13:01:45;12.90;99.90
40255;DHT22;25973;52.368;4.940;2023-04-16T13:04:10;13.00;99.90
40255;DHT22;25973;52.368;4.940;2023-04-16T13:06:36;13.00;99.90
40255;DHT22;25973;52.368;4.940;2023-04-16T13:09:02;13.00;99.90
40255;DHT22;25973;52.368;4.940;2023-04-16T13:11:28;13.10;99.90
40255;DHT22;25973;52.368;4.940;2023-04-16T13:13:53;13.20;99.90
40255;DHT22;25973;52.368;4.940;2023-04-16T13:16:19;13.20;99.90
40255;DHT22;25973;52.368;4.940;2023-04-16T13:18:45;13.30;99.90
40255;DHT22;25973;52.368;4.940;2023-04-16T13:21:10;13.30;99.90
40255;DHT22;25973;52.368;4.940;2023-04-16T13:23:36;13.30;99.90
40255;DHT22;25973;52.368;4.940;2023-04-16T13:26:01;13.20;99.90
40255;DHT22;25973;52.368;4.940;2023-04-16T13:28:27;13.20;99.90
40255;DHT22;25973;52.368;4.940;2023-04-16T13:30:52;13.20;99.90
40255;DHT22;25973;52.368;4.940;2023-04-16T13:33:18;13.10;99.90
40255;DHT22;25973;52.368;4.940;2023-04-16T13:35:45;13.10;99.90
40255;DHT22;25973;52.368;4.940;2023-04-16T13:38:10;13.00;99.90
40255;DHT22;25973;52.368;4.940;2023-04-16T13:40:36;13.00;99.90
40255;DHT22;25973;52.368;4.940;2023-04-16T13:43:02;12.90;99.90
40255;DHT22;25973;52.368;4.940;2023-04-16T13:45:27;12.80;99.90
40255;DHT22;25973;52.368;4.940;2023-04-16T13:47:53;12.70;99.90
40255;DHT22;25973;52.368;4.940;2023-04-16T13:50:18;12.70;99.90
40255;DHT22;25973;52.368;4.940;2023-04-16T13:52:44;12.60;99.90
40255;DHT22;25973;52.368;4.940;2023-04-16T13:55:09;12.60;99.90
40255;DHT22;25973;52.368;4.940;2023-04-16T13:57:38;12.60;99.90
40255;DHT22;25973;52.368;4.940;2023-04-16T14:00:03;12.50;99.90
40255;DHT22;25973;52.368;4.940;2023-04-16T14:02:29;12.50;99.90
40255;DHT22;25973;52.368;4.940;2023-04-16T14:04:54;12.40;99.90
40255;DHT22;25973;52.368;4.940;2023-04-16T14:07:20;12.50;99.90
40255;DHT22;25973;52.368;4.940;2023-04-16T14:09:49;12.50;99.90
40255;DHT22;25973;52.368;4.940;2023-04-16T14:12:15;12.50;99.90
40255;DHT22;25973;52.368;4.940;2023-04-16T14:14:40;12.50;99.90
40255;DHT22;25973;52.368;4.940;2023-04-16T14:17:06;12.50;99.90
40255;DHT22;25973;52.368;4.940;2023-04-16T14:19:31;12.50;99.90
40255;DHT22;25973;52.368;4.940;2023-04-16T14:21:57;12.50;99.90
40255;DHT22;25973;52.368;4.940;2023-04-16T14:24:22;12.50;99.90
40255;DHT22;25973;52.368;4.940;2023-04-16T14:26:48;12.60;99.90
40255;DHT22;25973;52.368;4.940;2023-04-16T14:29:13;12.60;99.90
40255;DHT22;25973;52.368;4.940;2023-04-16T14:31:39;12.60;99.90
40255;DHT22;25973;52.368;4.940;2023-04-16T14:34:04;12.60;99.90
40255;DHT22;25973;52.368;4.940;2023-04-16T14:36:29;12.70;99.90
40255;DHT22;25973;52.368;4.940;2023-04-16T14:38:55;12.70;99.90
40255;DHT22;25973;52.368;4.940;2023-04-16T14:41:21;12.80;99.90
40255;DHT22;25973;52.368;4.940;2023-04-16T14:43:46;12.80;99.90
40255;DHT22;25973;52.368;4.940;2023-04-16T14:46:12;12.80;99.90
40255;DHT22;25973;52.368;4.940;2023-04-16T14:48:37;12.80;99.90
40255;DHT22;25973;52.368;4.940;2023-04-16T14:51:03;12.80;99.90
40255;DHT22;25973;52.368;4.940;2023-04-16T14:53:28;12.80;99.90
40255;DHT22;25973;52.368;4.940;2023-04-16T14:55:54;12.80;99.90
40255;DHT22;25973;52.368;4.940;2023-04-16T14:58:24;12.70;99.90
40255;DHT22;25973;52.368;4.940;2023-04-16T15:00:50;12.70;99.90
40255;DHT22;25973;52.368;4.940;2023-04-16T15:03:15;12.70;99.90
40255;DHT22;25973;52.368;4.940;2023-04-16T15:05:41;12.80;99.90
40255;DHT22;25973;52.368;4.940;2023-04-16T15:08:06;12.70;99.90
40255;DHT22;25973;52.368;4.940;2023-04-16T15:10:32;12.80;99.90
40255;DHT22;25973;52.368;4.940;2023-04-16T15:12:57;12.70;99.90
40255;DHT22;25973;52.368;4.940;2023-04-16T15:15:22;12.70;99.90
40255;DHT22;25973;52.368;4.940;2023-04-16T15:17:48;12.70;99.90
40255;DHT22;25973;52.368;4.940;2023-04-16T15:20:15;12.60;99.90
40255;DHT22;25973;52.368;4.940;2023-04-16T15:22:40;12.60;99.90
40255;DHT22;25973;52.368;4.940;2023-04-16T15:25:06;12.60;99.90
40255;DHT22;25973;52.368;4.940;2023-04-16T15:27:31;12.60;99.90
40255;DHT22;25973;52.368;4.940;2023-04-16T15:29:57;12.60;99.90
40255;DHT22;25973;52.368;4.940;2023-04-16T15:32:22;12.60;99.90
40255;DHT22;25973;52.368;4.940;2023-04-16T15:34:48;12.50;99.90